x

Sentry Shoal (46131) Wave Buoy

5:00 - Tue 28th Jul 2015 All times are PDT. -7 hours from GMT.

  • Sig Wave height 0.3ft
  • Peak Period 2s
  • Wind
    9mph
  • Sea Temp 62°f
  • Air Temp 62°f
  • Sea Pressure 1024.2mb
  • Sentry Shoal
  • Sentry Shoal

More Historic Weather Station data

Upgrade to MSW Pro to gain access to the past 30 days of data for over 8000 Wavebouys and Weather Stations around the globe.

Join Pro

Comparision Forecast

View Surf forecast
   
mar. 07/28 5:00 0.3ft 2s 9
mph
1024.2mb 62f 62f
4:00 0.3ft 2s 7 9 mph 1024.1mb 62f 62f
3:00 0.3ft 2s 2 4 mph 1023.7mb 63f 62f
2:00 0.3ft 2s 4 7 mph 1023.4mb 63f 63f
1:00 0.3ft 2s 4 7 mph 1023.4mb 63f 64f
12:00 0.7ft 2s 4 7 mph 1023.2mb 64f 64f
lun. 07/27 11:00 0.3ft 2s 13 18 mph 1023mb 64f 65f
10:00 0.3ft 7s 4
mph
1022.8mb 65f 65f
9:00 0.3ft 3s 4
mph
1022.3mb 65f 67f
8:00 0.3ft 3s 4
mph
1022.1mb 65f 66f
7:00 0.3ft 3s 4
mph
1021.8mb 65f 66f
6:00 0.3ft 3s 7
mph
1021.6mb 66f 67f
5:00 0.3ft 5s 7 9 mph 1021.6mb 67f 66f
3:00 0.3ft 3s 4 7 mph 1021.9mb 66f 65f
2:00 0.3ft 2s 7 9 mph 1021.9mb 66f 65f
1:00  -  2s 4 7 mph 1022mb 67f 64f
12:00 0.3ft 3s 4
mph
1022.2mb 66f 63f
11:00 0.3ft 3s  -  mph 1022.2mb 64f 63f
10:00 0.3ft 2s 2 4 mph 1022.2mb 63f 61f
9:00 0.3ft 2s 7
mph
1022mb 63f 60f
8:00 0.7ft 2s 7 9 mph 1021.6mb 62f 59f
7:00 0.7ft 2s 7 9 mph 1021.2mb 62f 59f
6:00 0.7ft 2s 11 13 mph 1020.6mb 62f 58f
5:00 0.7ft 2s 11 13 mph 1019.9mb 62f 59f
4:00 0.7ft 2s 11 13 mph 1019.6mb 62f 59f
3:00 0.7ft 2s 11 13 mph 1019.2mb 61f 60f
2:00 1ft 2s 9
mph
1019.2mb 61f 60f
1:00 1ft 3s 13 16 mph 1018.9mb 61f 61f
12:00 1ft 2s 13 18 mph 1018.6mb 62f 62f
dim. 07/26 11:00 1ft 3s 11 13 mph 1018.5mb 62f 63f
10:00 1ft 7s 13 16 mph 1018.3mb 63f 64f
9:00 0.3ft 2s 13 18 mph 1017.7mb 65f 65f
8:00 0.3ft 3s 4
mph
1017.5mb 65f 65f
7:00 0.3ft 3s 4 7 mph 1017mb 65f 66f
6:00 0.3ft 2s 9
mph
1016.9mb 66f 65f
5:00 0.3ft 3s 9
mph
1016.8mb 66f 64f
4:00 0.3ft 6s 9
mph
1017mb 66f 63f
3:00 0.3ft 2s 4 7 mph 1017.2mb 66f 63f
2:00 0.3ft 2s 4
mph
1017.5mb 66f 62f
1:00 0.3ft 4s 4 7 mph 1017.8mb 65f 61f
12:00 0.3ft 2s 4
mph
1017.9mb 64f 60f
11:00 0.3ft 2s  -  2 mph 1018mb 63f 59f
10:00 0.3ft 2s 4
mph
1017.9mb 63f 58f
9:00 0.3ft 2s 7 9 mph 1017.8mb 63f 58f
8:00 0.3ft 2s 7 9 mph 1017.6mb 63f 58f
7:00 0.3ft 2s 7 9 mph 1017.3mb 62f 58f
6:00 0.7ft 2s 9
mph
1016.9mb 62f 57f
5:00 0.3ft 2s 11 13 mph 1016.7mb 62f 58f
4:00 0.7ft 2s 9 11 mph 1016.4mb 61f 58f
3:00 0.7ft 3s 9 11 mph 1016.3mb 61f 58f
2:00 0.7ft 2s 9 11 mph 1016.4mb 60f 58f
1:00 0.7ft 2s 9 11 mph 1016.5mb 61f 59f
12:00 0.7ft 2s 13 16 mph 1016.6mb 61f 59f
sam. 07/25 11:00 0.3ft 2s 9 11 mph 1016.5mb 61f 60f
10:00 0.3ft 3s 4 7 mph 1016.5mb 62f 60f
9:00 0.3ft 3s 4
mph
1016.4mb 62f 61f
8:00 0.3ft 4s 4 7 mph 1016.3mb 62f 61f
7:00 0.3ft 2s 4 7 mph 1016.4mb 62f 60f
6:00 0.3ft 2s 7 9 mph 1016.3mb 63f 60f
5:00 0.3ft 3s 4 7 mph 1016.4mb 64f 62f
4:00 0.3ft 2s 2
mph
1016.2mb 64f 63f
3:00 0.3ft 2s 4
mph
1016.2mb 64f 63f
2:00 0.3ft 2s 7
mph
1016.2mb 63f 62f
1:00 0.3ft 2s 7 9 mph 1016.4mb 63f 61f
12:00 0.3ft 2s 7 9 mph 1016.4mb 62f 60f
11:00 0.3ft 3s 4 7 mph 1016.3mb 62f 60f
10:00 0.3ft 2s 2 4 mph 1016.4mb 62f 60f
9:00  -  3s  -  mph 1016.4mb 61f 61f
8:00 0.3ft 5s 2
mph
1016.2mb 60f 59f
7:00 0.3ft 6s 2
mph
1016.1mb 60f 58f
6:00 0.3ft 6s 4
mph
1015.9mb 60f 58f
5:00 0.3ft 6s 4 7 mph 1015.6mb 60f 58f
4:00 0.3ft 2s 7
mph
1015.6mb 60f 58f
3:00 0.7ft 2s 7 9 mph 1015.7mb 60f 58f
2:00 1ft 3s 7
mph
1015.6mb 60f 59f
1:00 1.6ft 4s 13 16 mph 1015.6mb 60f 59f
12:00 1.6ft 4s 11 16 mph 1015.4mb 60f 60f
ven. 07/24 11:00 2.5ft 5s 4 7 mph 1015.4mb 60f 60f
10:00 2.5ft 5s 13 18 mph 1015.2mb 60f 61f
9:00 3.5ft 5s 16 18 mph 1014.9mb 60f 62f
8:00 4ft 5s 20 25 mph 1014.7mb 60f 62f
7:00 4.5ft 6s 22 25 mph 1014.9mb 60f 62f
6:00 4.5ft 6s 22 27 mph 1014.6mb 60f 61f
5:00 5ft 6s 25 29 mph 1014.8mb 60f 62f
4:00 5.5ft 5s 27 31 mph 1014.5mb 60f 61f
3:00 6ft 5s 29 34 mph 1014.4mb 61f 61f
2:00 5.5ft 5s 29 34 mph 1014.5mb 61f 61f